Khorramabad, Iran
Current Conditions -  °F | °C
As of 9:00 PM on Friday 21 Nov 2014 (Local Time) from OICC Reporting Station
Overcast Overcast  
Wind Chill: 43°   Ceiling: 7000
Heat Index: 48°   Visibility: 6mi
Dew Point: 43°   Wind: 14mph
Humidity: 82%   Direction: 110°ESE
Pressure: 30.18"   Gusts: NA
Location:  33.47°N, 48.35°E
Report Text: OICC 211800Z 11012KT 9999 FEW035CB SCT040 OVC070 09/06 Q1022 A3019
Loading
Personal Weather Stations






























Interactive Weather Map New forecast layout! Learn more

10-Day Weather Forecast

Advertisements
Track Severe Weather on mobile